Time;durP1;ratioP1;P1;durP2;ratioP2;P2;SDS_P1;SDS_P2;PMS_P1;PMS_P2;Temp;Humidity;BMP_temperature;BMP_pressure;BME280_temperature;BME280_humidity;BME280_pressure;Samples;Min_cycle;Max_cycle;Signal;HPM_P1;HPM_P2
2021/03/31 00:02:14;;;;;;;12.65;8.02;;;;;;;;;;5093404;28;20024;-67
2021/03/31 00:04:40;;;;;;;13.80;7.82;;;;;;;;;;5093182;28;20019;-67
2021/03/31 00:07:06;;;;;;;12.30;7.38;;;;;;;;;;5093489;28;20111;-67
2021/03/31 00:09:31;;;;;;;13.75;7.93;;;;;;;;;;5093787;28;20035;-67
2021/03/31 00:11:57;;;;;;;14.90;8.15;;;;;;;;;;5093768;28;20024;-67
2021/03/31 00:14:22;;;;;;;21.88;6.82;;;;;;;;;;5093730;28;20024;-67
2021/03/31 00:16:47;;;;;;;17.25;7.57;;;;;;;;;;5093539;28;20051;-67
2021/03/31 00:19:12;;;;;;;15.85;7.80;;;;;;;;;;5093430;28;20038;-67
2021/03/31 00:21:38;;;;;;;13.05;6.95;;;;;;;;;;5093403;28;20472;-67
2021/03/31 00:24:03;;;;;;;14.15;7.35;;;;;;;;;;5093238;28;20102;-67
2021/03/31 00:26:28;;;;;;;19.50;7.80;;;;;;;;;;5093423;28;20020;-67
2021/03/31 00:28:54;;;;;;;14.75;8.13;;;;;;;;;;5093436;28;20069;-67
2021/03/31 00:31:19;;;;;;;18.27;8.38;;;;;;;;;;5093335;28;20482;-67
2021/03/31 00:33:44;;;;;;;13.02;7.55;;;;;;;;;;5099249;28;20029;-67
2021/03/31 00:36:10;;;;;;;11.30;7.10;;;;;;;;;;5108043;28;20063;-67
2021/03/31 00:38:35;;;;;;;14.27;7.82;;;;;;;;;;5093053;28;20391;-67
2021/03/31 00:41:01;;;;;;;14.45;8.70;;;;;;;;;;5099644;28;20379;-67
2021/03/31 00:43:26;;;;;;;15.57;8.20;;;;;;;;;;5113807;28;20031;-67
2021/03/31 00:45:52;;;;;;;16.55;7.65;;;;;;;;;;5113238;28;20035;-67
2021/03/31 00:48:17;;;;;;;14.63;7.53;;;;;;;;;;5113704;28;20024;-67
2021/03/31 00:50:43;;;;;;;14.15;8.40;;;;;;;;;;5110402;28;20028;-67
2021/03/31 00:53:09;;;;;;;16.13;8.43;;;;;;;;;;5093309;28;20071;-67
2021/03/31 00:55:34;;;;;;;19.77;8.02;;;;;;;;;;5093043;28;20467;-67
2021/03/31 00:57:59;;;;;;;19.60;8.20;;;;;;;;;;5093194;28;20028;-67
2021/03/31 01:00:25;;;;;;;18.30;8.15;;;;;;;;;;5092794;28;20036;-67
2021/03/31 01:02:50;;;;;;;15.77;8.07;;;;;;;;;;5093185;28;20016;-66
2021/03/31 01:05:24;;;;;;;15.98;8.65;;;;;;;;;;5092951;28;20039;-67
2021/03/31 01:07:49;;;;;;;18.85;7.57;;;;;;;;;;5093028;28;20032;-67
2021/03/31 01:10:16;;;;;;;19.52;8.77;;;;;;;;;;5090439;28;20031;-67
2021/03/31 01:12:56;;;;;;;14.38;8.95;;;;;;;;;;5091168;28;20533;-67
2021/03/31 01:15:36;;;;;;;20.27;8.95;;;;;;;;;;5094090;28;20099;-67
2021/03/31 01:18:09;;;;;;;15.75;7.90;;;;;;;;;;5096958;28;20417;-67
2021/03/31 01:20:53;;;;;;;18.75;8.90;;;;;;;;;;5096622;28;20487;-66
2021/03/31 01:23:44;;;;;;;20.40;8.45;;;;;;;;;;5096846;28;20195;-67
2021/03/31 01:26:13;;;;;;;19.50;8.57;;;;;;;;;;5064967;28;20101;-67
2021/03/31 01:28:57;;;;;;;14.73;8.73;;;;;;;;;;5096584;28;20066;-67
2021/03/31 01:31:38;;;;;;;14.40;8.43;;;;;;;;;;5096696;28;20067;-67
2021/03/31 01:34:22;;;;;;;14.57;7.47;;;;;;;;;;5096791;28;20107;-67
2021/03/31 01:36:49;;;;;;;12.93;8.18;;;;;;;;;;5096468;28;20028;-67
2021/03/31 01:39:15;;;;;;;21.08;9.00;;;;;;;;;;5096529;28;20079;-66
2021/03/31 01:41:40;;;;;;;17.27;8.30;;;;;;;;;;5096401;28;20414;-67
2021/03/31 01:44:07;;;;;;;16.73;8.82;;;;;;;;;;5096471;28;20053;-66
2021/03/31 01:46:32;;;;;;;19.48;8.48;;;;;;;;;;5096139;28;20479;-67
2021/03/31 01:48:59;;;;;;;17.45;8.40;;;;;;;;;;5096337;28;20027;-67
2021/03/31 01:51:24;;;;;;;18.98;8.10;;;;;;;;;;5096256;28;20028;-67
2021/03/31 01:53:50;;;;;;;21.40;8.32;;;;;;;;;;5096316;28;20036;-66
2021/03/31 01:56:17;;;;;;;17.55;8.65;;;;;;;;;;5095980;28;20019;-66
2021/03/31 01:58:42;;;;;;;21.80;8.80;;;;;;;;;;5095763;28;20545;-67
2021/03/31 02:01:08;;;;;;;14.98;8.93;;;;;;;;;;5095812;28;20028;-66
2021/03/31 02:03:34;;;;;;;15.95;7.40;;;;;;;;;;5096031;28;20470;-67
2021/03/31 02:05:59;;;;;;;19.67;8.65;;;;;;;;;;5096025;28;20387;-66
2021/03/31 02:08:25;;;;;;;19.05;8.80;;;;;;;;;;5096148;28;20502;-67
2021/03/31 02:10:51;;;;;;;14.77;9.30;;;;;;;;;;5095826;28;20032;-67
2021/03/31 02:13:17;;;;;;;16.25;8.43;;;;;;;;;;5096021;28;20032;-67
2021/03/31 02:15:43;;;;;;;19.48;9.40;;;;;;;;;;5095848;28;20036;-66
2021/03/31 02:18:11;;;;;;;15.27;8.07;;;;;;;;;;5095512;28;20164;-66
2021/03/31 02:20:37;;;;;;;15.98;7.97;;;;;;;;;;5095877;28;20044;-67
2021/03/31 02:23:03;;;;;;;18.05;8.70;;;;;;;;;;5096175;28;20036;-66
2021/03/31 02:25:29;;;;;;;19.05;8.57;;;;;;;;;;5095801;28;20016;-66
2021/03/31 02:27:54;;;;;;;15.55;8.80;;;;;;;;;;5095035;28;20478;-67
2021/03/31 02:30:21;;;;;;;21.27;8.02;;;;;;;;;;5095421;28;20061;-66
2021/03/31 02:32:48;;;;;;;17.98;8.35;;;;;;;;;;5095398;28;20027;-67
2021/03/31 02:35:14;;;;;;;15.38;8.43;;;;;;;;;;5095580;28;20032;-66
2021/03/31 02:37:41;;;;;;;16.15;7.55;;;;;;;;;;5095397;28;20040;-67
2021/03/31 02:40:07;;;;;;;18.20;8.73;;;;;;;;;;5069872;28;20438;-67
2021/03/31 02:42:33;;;;;;;12.85;7.38;;;;;;;;;;5073825;28;20024;-67
2021/03/31 02:44:59;;;;;;;19.27;7.90;;;;;;;;;;5073642;28;20040;-66
2021/03/31 02:47:27;;;;;;;15.82;7.82;;;;;;;;;;5074986;28;20021;-67
2021/03/31 02:49:54;;;;;;;19.83;7.20;;;;;;;;;;5074853;28;20028;-67
2021/03/31 02:52:21;;;;;;;15.55;7.93;;;;;;;;;;5074916;28;20048;-67
2021/03/31 02:54:47;;;;;;;14.48;7.57;;;;;;;;;;5074984;28;20062;-66
2021/03/31 02:57:13;;;;;;;17.48;7.45;;;;;;;;;;5074911;28;20036;-66
2021/03/31 02:59:41;;;;;;;11.80;6.50;;;;;;;;;;5074843;28;20051;-67
2021/03/31 03:02:07;;;;;;;12.30;6.72;;;;;;;;;;5074687;28;20029;-67
2021/03/31 03:04:33;;;;;;;16.35;6.55;;;;;;;;;;5074868;28;20107;-67
2021/03/31 03:06:58;;;;;;;15.13;6.97;;;;;;;;;;5074529;28;20067;-67
2021/03/31 03:09:23;;;;;;;13.32;6.35;;;;;;;;;;5074702;28;20099;-67
2021/03/31 03:11:50;;;;;;;14.43;6.78;;;;;;;;;;5074621;28;20563;-66
2021/03/31 03:14:16;;;;;;;12.18;6.93;;;;;;;;;;5074622;28;20036;-67
2021/03/31 03:16:41;;;;;;;16.58;6.40;;;;;;;;;;5074264;28;20047;-67
2021/03/31 03:19:07;;;;;;;9.65;5.95;;;;;;;;;;5074446;28;20047;-66
2021/03/31 03:21:33;;;;;;;13.93;6.88;;;;;;;;;;5074365;28;20036;-67
2021/03/31 03:23:58;;;;;;;11.00;5.57;;;;;;;;;;5074369;28;20031;-67
2021/03/31 03:26:24;;;;;;;15.15;5.93;;;;;;;;;;5074269;28;20037;-66
2021/03/31 03:28:49;;;;;;;11.05;5.90;;;;;;;;;;5074260;28;20040;-66
2021/03/31 03:31:15;;;;;;;10.63;5.50;;;;;;;;;;5073711;28;20027;-66
2021/03/31 03:33:40;;;;;;;11.57;6.22;;;;;;;;;;5074519;28;20032;-67
2021/03/31 03:36:07;;;;;;;11.30;6.80;;;;;;;;;;5074059;28;20483;-67
2021/03/31 03:38:36;;;;;;;11.25;5.45;;;;;;;;;;5071747;28;20102;-67
2021/03/31 03:41:03;;;;;;;12.38;5.28;;;;;;;;;;5073859;28;20473;-67
2021/03/31 03:43:28;;;;;;;10.18;5.07;;;;;;;;;;5074055;28;20042;-67
2021/03/31 03:45:57;;;;;;;10.48;5.15;;;;;;;;;;5073842;28;20372;-66
2021/03/31 03:48:22;;;;;;;13.43;5.63;;;;;;;;;;5074025;28;20063;-66
2021/03/31 03:50:47;;;;;;;10.77;5.68;;;;;;;;;;5073864;28;20067;-67
2021/03/31 03:53:12;;;;;;;12.98;5.45;;;;;;;;;;5073763;28;20456;-67
2021/03/31 03:55:38;;;;;;;11.00;5.45;;;;;;;;;;5073773;28;20032;-66
2021/03/31 03:58:07;;;;;;;10.27;5.57;;;;;;;;;;5073919;28;20033;-66
2021/03/31 04:00:33;;;;;;;21.98;6.00;;;;;;;;;;5073732;28;20021;-67
2021/03/31 04:02:59;;;;;;;12.35;5.95;;;;;;;;;;5073643;28;20070;-67
2021/03/31 04:05:24;;;;;;;9.23;5.53;;;;;;;;;;5073506;28;20388;-67
2021/03/31 04:07:49;;;;;;;11.05;5.93;;;;;;;;;;5073458;28;20047;-66
2021/03/31 04:10:16;;;;;;;12.88;6.30;;;;;;;;;;5073633;28;20086;-67
2021/03/31 04:12:41;;;;;;;9.68;5.53;;;;;;;;;;5073388;28;20039;-67
2021/03/31 04:15:07;;;;;;;8.43;5.60;;;;;;;;;;5073134;28;20028;-66
2021/03/31 04:17:35;;;;;;;17.27;5.55;;;;;;;;;;5071839;28;20035;-66
2021/03/31 04:20:00;;;;;;;9.35;5.30;;;;;;;;;;5073374;28;20036;-66
2021/03/31 04:22:26;;;;;;;10.13;5.47;;;;;;;;;;5073052;28;20028;-66
2021/03/31 04:24:51;;;;;;;11.45;5.70;;;;;;;;;;5073325;28;20111;-67
2021/03/31 04:27:17;;;;;;;9.57;5.55;;;;;;;;;;5073135;28;20116;-67
2021/03/31 04:29:43;;;;;;;10.88;6.10;;;;;;;;;;5073242;28;20025;-67
2021/03/31 04:32:09;;;;;;;12.60;6.35;;;;;;;;;;5073266;28;20033;-67
2021/03/31 04:34:34;;;;;;;15.13;6.60;;;;;;;;;;5072966;28;20094;-67
2021/03/31 04:37:00;;;;;;;14.15;6.05;;;;;;;;;;5073130;28;20059;-67
2021/03/31 04:39:25;;;;;;;11.07;5.80;;;;;;;;;;5087494;28;20048;-66
2021/03/31 04:41:50;;;;;;;15.20;6.47;;;;;;;;;;5093052;28;20028;-67
2021/03/31 04:44:15;;;;;;;14.05;6.65;;;;;;;;;;5093068;28;20032;-67
2021/03/31 04:46:41;;;;;;;12.38;6.13;;;;;;;;;;5093098;28;20040;-66
2021/03/31 04:49:06;;;;;;;18.48;6.53;;;;;;;;;;5093199;28;20067;-67
2021/03/31 04:51:31;;;;;;;11.63;6.13;;;;;;;;;;5092549;28;20512;-67
2021/03/31 04:53:57;;;;;;;13.00;5.78;;;;;;;;;;5093224;28;20040;-66
2021/03/31 04:56:22;;;;;;;12.73;6.07;;;;;;;;;;5093089;28;20554;-66
2021/03/31 04:58:47;;;;;;;18.13;5.95;;;;;;;;;;5093112;28;20068;-66
2021/03/31 05:01:13;;;;;;;9.50;5.80;;;;;;;;;;5092819;28;20028;-67
2021/03/31 05:03:38;;;;;;;10.70;5.80;;;;;;;;;;5092844;28;20028;-66
2021/03/31 05:06:04;;;;;;;15.32;5.50;;;;;;;;;;5093159;28;20026;-66
2021/03/31 05:08:29;;;;;;;11.43;6.25;;;;;;;;;;5092968;28;20471;-66
2021/03/31 05:10:54;;;;;;;14.15;5.53;;;;;;;;;;5092824;28;20039;-66
2021/03/31 05:13:19;;;;;;;12.68;5.93;;;;;;;;;;5092882;28;20019;-66
2021/03/31 05:15:45;;;;;;;9.15;6.15;;;;;;;;;;5093125;28;20051;-66
2021/03/31 05:18:10;;;;;;;13.02;6.38;;;;;;;;;;5093109;28;20028;-66
2021/03/31 05:20:36;;;;;;;17.15;6.47;;;;;;;;;;5093095;28;20468;-66
2021/03/31 05:23:01;;;;;;;16.35;6.75;;;;;;;;;;5092844;28;20059;-67
2021/03/31 05:25:27;;;;;;;17.35;5.70;;;;;;;;;;5095157;28;20080;-66
2021/03/31 05:27:53;;;;;;;12.55;6.13;;;;;;;;;;5092474;28;20020;-66
2021/03/31 05:30:18;;;;;;;15.82;6.30;;;;;;;;;;5092951;28;20028;-66
2021/03/31 05:32:43;;;;;;;12.45;6.28;;;;;;;;;;5092035;28;20028;-66
2021/03/31 05:35:09;;;;;;;13.25;6.22;;;;;;;;;;5092387;28;20069;-66
2021/03/31 05:37:35;;;;;;;14.88;6.47;;;;;;;;;;5092756;28;20035;-67
2021/03/31 05:40:00;;;;;;;9.68;5.63;;;;;;;;;;5092158;28;20419;-66
2021/03/31 05:42:26;;;;;;;10.90;6.00;;;;;;;;;;5086980;28;20012;-66
2021/03/31 05:44:51;;;;;;;12.25;6.07;;;;;;;;;;5091452;28;20436;-67
2021/03/31 05:47:34;;;;;;;12.27;5.93;;;;;;;;;;5091182;28;20042;-67
2021/03/31 05:49:59;;;;;;;15.88;6.18;;;;;;;;;;5074461;28;20152;-67
2021/03/31 05:52:25;;;;;;;10.35;5.30;;;;;;;;;;5092636;28;20501;-66
2021/03/31 05:54:50;;;;;;;13.55;6.10;;;;;;;;;;5092555;28;20012;-67
2021/03/31 05:57:17;;;;;;;10.77;6.15;;;;;;;;;;5092659;28;20388;-67
2021/03/31 05:59:42;;;;;;;13.90;5.15;;;;;;;;;;5092578;28;20044;-66
2021/03/31 06:02:09;;;;;;;13.55;5.28;;;;;;;;;;5092928;28;20020;-66
2021/03/31 06:04:34;;;;;;;14.05;5.32;;;;;;;;;;5096320;28;20013;-67
2021/03/31 06:07:01;;;;;;;11.20;5.20;;;;;;;;;;5095940;28;20035;-66
2021/03/31 06:09:27;;;;;;;11.85;4.93;;;;;;;;;;5096208;28;20059;-66
2021/03/31 06:11:55;;;;;;;11.82;5.07;;;;;;;;;;5095834;28;20008;-67
2021/03/31 06:14:30;;;;;;;10.18;4.88;;;;;;;;;;5096216;28;20404;-66
2021/03/31 06:17:06;;;;;;;9.88;5.05;;;;;;;;;;5095701;28;20072;-64
2021/03/31 06:19:33;;;;;;;11.48;5.10;;;;;;;;;;5095939;28;20124;-64
2021/03/31 06:22:49;;;;;;;9.38;4.85;;;;;;;;;;5095580;28;20158;-64
2021/03/31 06:25:00;;;;;;;15.40;5.65;;;;;;;;;;5087032;28;20066;-64
2021/03/31 06:27:28;;;;;;;7.18;4.57;;;;;;;;;;5095781;28;20028;-64
2021/03/31 06:30:06;;;;;;;9.57;4.47;;;;;;;;;;5095134;28;20532;-64
2021/03/31 06:32:35;;;;;;;8.27;4.80;;;;;;;;;;5095403;28;20023;-64
2021/03/31 06:35:00;;;;;;;9.38;5.18;;;;;;;;;;5095394;28;20035;-64
2021/03/31 06:37:28;;;;;;;8.23;4.68;;;;;;;;;;5095172;28;20012;-64
2021/03/31 06:39:54;;;;;;;11.70;4.90;;;;;;;;;;5095621;28;20127;-64
2021/03/31 06:42:24;;;;;;;7.25;4.13;;;;;;;;;;5095180;28;20196;-64
2021/03/31 06:47:30;;;;;;;8.07;4.45;;;;;;;;;;5095385;28;20375;-64
2021/03/31 06:49:55;;;;;;;7.70;4.30;;;;;;;;;;5095351;28;20028;-64
2021/03/31 06:52:21;;;;;;;11.25;4.63;;;;;;;;;;5094442;28;20232;-64
2021/03/31 06:54:46;;;;;;;9.02;4.22;;;;;;;;;;5095088;28;20016;-64
2021/03/31 06:57:13;;;;;;;12.27;4.93;;;;;;;;;;5094826;28;20036;-64
2021/03/31 06:59:40;;;;;;;10.95;4.88;;;;;;;;;;5094909;28;20040;-64
2021/03/31 07:02:05;;;;;;;8.82;3.95;;;;;;;;;;5095062;28;20044;-67
2021/03/31 07:04:31;;;;;;;8.18;3.72;;;;;;;;;;5095087;28;20472;-67
2021/03/31 07:07:02;;;;;;;9.05;3.80;;;;;;;;;;5095130;28;20018;-67
2021/03/31 07:09:27;;;;;;;9.10;4.00;;;;;;;;;;5094741;28;20012;-67
2021/03/31 07:11:53;;;;;;;8.35;4.18;;;;;;;;;;5094630;28;20040;-67
2021/03/31 07:14:19;;;;;;;8.27;3.75;;;;;;;;;;5094810;28;20432;-67
2021/03/31 07:16:45;;;;;;;12.23;4.72;;;;;;;;;;5094784;28;20012;-67
2021/03/31 07:19:11;;;;;;;102.78;39.13;;;;;;;;;;5076474;28;20042;-67
2021/03/31 07:21:36;;;;;;;66.47;25.98;;;;;;;;;;5094231;28;20024;-67
2021/03/31 07:24:02;;;;;;;16.40;7.82;;;;;;;;;;5094466;28;20023;-67
2021/03/31 07:26:28;;;;;;;23.05;7.45;;;;;;;;;;5094464;28;20067;-65
2021/03/31 07:28:54;;;;;;;41.63;15.57;;;;;;;;;;5087645;28;20371;-67
2021/03/31 07:31:23;;;;;;;42.25;17.75;;;;;;;;;;5092014;28;20020;-68
2021/03/31 07:33:54;;;;;;;108.13;45.42;;;;;;;;;;5092067;28;20028;-67
2021/03/31 07:36:20;;;;;;;63.30;27.90;;;;;;;;;;5091850;28;20024;-67
2021/03/31 07:38:47;;;;;;;41.22;17.75;;;;;;;;;;5090138;28;20055;-68
2021/03/31 07:41:12;;;;;;;60.40;22.85;;;;;;;;;;5090836;28;20043;-67
2021/03/31 07:43:39;;;;;;;46.20;20.77;;;;;;;;;;5091018;28;20460;-68
2021/03/31 07:46:07;;;;;;;42.58;17.27;;;;;;;;;;5091673;28;20369;-68
2021/03/31 07:48:32;;;;;;;28.75;11.20;;;;;;;;;;5091022;28;20028;-68
2021/03/31 07:51:13;;;;;;;30.38;13.52;;;;;;;;;;5091115;28;20031;-68
2021/03/31 07:53:41;;;;;;;28.48;12.70;;;;;;;;;;5091137;28;20036;-68
2021/03/31 07:56:16;;;;;;;25.92;11.93;;;;;;;;;;5091356;28;20471;-68
2021/03/31 07:58:42;;;;;;;23.88;11.70;;;;;;;;;;5090541;28;20395;-68
2021/03/31 08:01:10;;;;;;;21.00;10.77;;;;;;;;;;5082297;28;20028;-68
2021/03/31 08:03:37;;;;;;;24.88;10.77;;;;;;;;;;5089859;28;20471;-68
2021/03/31 08:06:10;;;;;;;26.13;10.05;;;;;;;;;;5072782;28;20055;-68
2021/03/31 08:08:36;;;;;;;23.58;10.52;;;;;;;;;;5083782;28;20486;-68
2021/03/31 08:11:02;;;;;;;20.83;10.10;;;;;;;;;;5089617;28;20035;-68
2021/03/31 08:13:29;;;;;;;37.58;17.08;;;;;;;;;;5080381;28;20472;-69
2021/03/31 08:15:55;;;;;;;42.50;16.48;;;;;;;;;;5080514;28;20024;-69
2021/03/31 08:18:21;;;;;;;36.25;17.08;;;;;;;;;;5092441;28;20028;-66
2021/03/31 08:20:48;;;;;;;24.90;10.73;;;;;;;;;;5074478;28;20039;-66
2021/03/31 08:23:13;;;;;;;18.55;9.30;;;;;;;;;;5092511;28;20020;-66
2021/03/31 08:25:39;;;;;;;15.48;7.80;;;;;;;;;;5091782;28;20035;-66
2021/03/31 08:28:06;;;;;;;15.63;7.25;;;;;;;;;;5086401;28;20079;-66
2021/03/31 08:30:33;;;;;;;12.35;7.07;;;;;;;;;;5089271;28;20023;-66
2021/03/31 08:32:58;;;;;;;13.45;6.95;;;;;;;;;;5089887;28;20032;-66
2021/03/31 08:35:25;;;;;;;15.55;6.93;;;;;;;;;;5086014;28;20039;-66
2021/03/31 08:37:50;;;;;;;17.77;8.32;;;;;;;;;;5087197;28;20026;-66
2021/03/31 08:40:16;;;;;;;13.77;7.53;;;;;;;;;;5087820;28;20044;-66
2021/03/31 08:42:53;;;;;;;15.40;7.60;;;;;;;;;;5088704;28;20039;-66
2021/03/31 08:45:42;;;;;;;13.70;6.20;;;;;;;;;;5089568;28;20020;-66
2021/03/31 08:48:08;;;;;;;21.40;8.65;;;;;;;;;;5090158;28;20467;-67
2021/03/31 08:50:36;;;;;;;17.65;8.90;;;;;;;;;;5090888;28;20073;-66
2021/03/31 08:53:03;;;;;;;14.30;7.95;;;;;;;;;;5090455;28;20032;-67
2021/03/31 08:55:29;;;;;;;16.98;8.25;;;;;;;;;;5090162;28;20025;-67
2021/03/31 08:57:55;;;;;;;14.90;8.10;;;;;;;;;;5090236;28;20027;-67
2021/03/31 09:00:20;;;;;;;15.65;7.63;;;;;;;;;;5089144;28;20044;-67
2021/03/31 09:02:47;;;;;;;13.18;7.53;;;;;;;;;;5089071;28;20032;-67
2021/03/31 09:05:14;;;;;;;14.05;7.90;;;;;;;;;;5083871;28;20388;-68
2021/03/31 09:07:39;;;;;;;18.95;8.15;;;;;;;;;;5084774;28;20078;-67
2021/03/31 09:10:09;;;;;;;17.13;8.63;;;;;;;;;;5084835;28;20032;-67
2021/03/31 09:12:34;;;;;;;19.98;9.38;;;;;;;;;;5084598;28;20024;-67
2021/03/31 09:15:02;;;;;;;21.23;9.05;;;;;;;;;;5085030;28;20066;-67
2021/03/31 09:17:28;;;;;;;17.45;9.02;;;;;;;;;;5084768;28;20032;-67
2021/03/31 09:20:00;;;;;;;20.33;8.43;;;;;;;;;;5084506;28;20744;-67
2021/03/31 09:22:27;;;;;;;21.70;10.75;;;;;;;;;;5084988;28;20051;-67
2021/03/31 09:25:03;;;;;;;23.00;9.57;;;;;;;;;;5085216;28;20028;-67
2021/03/31 09:27:29;;;;;;;25.88;10.40;;;;;;;;;;5084432;28;20060;-67
2021/03/31 09:29:56;;;;;;;22.20;10.65;;;;;;;;;;5084114;28;20445;-68
2021/03/31 09:32:28;;;;;;;24.17;11.45;;;;;;;;;;5085266;28;20115;-67
2021/03/31 09:34:53;;;;;;;43.25;11.77;;;;;;;;;;5085527;28;20039;-67
2021/03/31 09:37:19;;;;;;;24.67;11.88;;;;;;;;;;5086380;28;20028;-67
2021/03/31 09:39:44;;;;;;;25.35;11.95;;;;;;;;;;5087504;28;20054;-67
2021/03/31 09:42:28;;;;;;;23.13;11.55;;;;;;;;;;5088122;28;20031;-67
2021/03/31 09:44:54;;;;;;;24.13;11.02;;;;;;;;;;5087915;28;20381;-67
2021/03/31 09:47:20;;;;;;;22.23;11.32;;;;;;;;;;5088265;28;20051;-68
2021/03/31 09:49:47;;;;;;;24.92;12.38;;;;;;;;;;5087947;28;20044;-68
2021/03/31 09:52:13;;;;;;;23.70;10.95;;;;;;;;;;5088045;28;20024;-68
2021/03/31 09:54:38;;;;;;;28.40;12.15;;;;;;;;;;5088231;28;20117;-67
2021/03/31 09:57:04;;;;;;;25.98;11.93;;;;;;;;;;5087860;28;20077;-67
2021/03/31 09:59:30;;;;;;;23.05;12.43;;;;;;;;;;5088312;28;20047;-68
2021/03/31 10:01:56;;;;;;;26.92;13.30;;;;;;;;;;5090462;28;20107;-67
2021/03/31 10:04:21;;;;;;;24.10;12.90;;;;;;;;;;5093286;28;20023;-67
2021/03/31 10:07:05;;;;;;;27.17;12.73;;;;;;;;;;5092760;28;20016;-67
2021/03/31 10:09:37;;;;;;;23.80;12.10;;;;;;;;;;5093162;28;20371;-67
2021/03/31 10:12:03;;;;;;;26.50;11.82;;;;;;;;;;5092099;28;20027;-67
2021/03/31 10:14:28;;;;;;;21.90;11.20;;;;;;;;;;5091677;28;20027;-67
2021/03/31 10:16:54;;;;;;;26.30;12.70;;;;;;;;;;5074831;28;20027;-67
2021/03/31 10:19:19;;;;;;;26.33;11.20;;;;;;;;;;5092305;28;20483;-67
2021/03/31 10:21:46;;;;;;;20.58;11.07;;;;;;;;;;5093158;28;20027;-67
2021/03/31 10:24:13;;;;;;;24.13;11.93;;;;;;;;;;5092807;28;20072;-67
2021/03/31 10:26:44;;;;;;;24.30;11.75;;;;;;;;;;5093237;28;20024;-68
2021/03/31 10:29:20;;;;;;;31.17;12.23;;;;;;;;;;5092823;28;20544;-68
2021/03/31 10:31:46;;;;;;;23.88;11.43;;;;;;;;;;5092641;28;20440;-67
2021/03/31 10:34:13;;;;;;;24.10;10.52;;;;;;;;;;5092586;28;20028;-67
2021/03/31 10:37:12;;;;;;;26.35;11.18;;;;;;;;;;5093154;28;20103;-67
2021/03/31 10:48:25;;;;;;;21.85;10.35;;;;;;;;;;5090545;28;20082;-67
2021/03/31 10:53:40;;;;;;;28.52;10.98;;;;;;;;;;5057863;28;20079;-67
2021/03/31 10:56:05;;;;;;;22.52;10.73;;;;;;;;;;5089801;28;20028;-67
2021/03/31 10:58:31;;;;;;;21.92;9.68;;;;;;;;;;5091286;28;20028;-67
2021/03/31 11:00:56;;;;;;;21.92;10.15;;;;;;;;;;5090621;28;20834;-67
2021/03/31 11:03:24;;;;;;;24.48;9.15;;;;;;;;;;5089546;28;20039;-67
2021/03/31 11:05:50;;;;;;;23.95;8.93;;;;;;;;;;5090614;28;20043;-67
2021/03/31 11:08:16;;;;;;;25.15;9.30;;;;;;;;;;5090861;28;20045;-67
2021/03/31 11:10:41;;;;;;;20.95;8.40;;;;;;;;;;5091700;28;20514;-67
2021/03/31 11:13:07;;;;;;;24.95;8.90;;;;;;;;;;5091327;28;20396;-67
2021/03/31 11:15:33;;;;;;;18.98;8.50;;;;;;;;;;5090726;28;20123;-67
2021/03/31 11:28:16;;;;;;;29.33;7.85;;;;;;;;;;5081526;28;20026;-67
2021/03/31 11:30:42;;;;;;;24.88;7.20;;;;;;;;;;5087280;28;20048;-67
2021/03/31 11:33:07;;;;;;;23.48;7.30;;;;;;;;;;5086161;28;20065;-67
2021/03/31 11:35:32;;;;;;;29.35;7.88;;;;;;;;;;5087186;28;20027;-67
2021/03/31 11:37:58;;;;;;;27.15;6.53;;;;;;;;;;5086393;28;20078;-67
2021/03/31 11:40:23;;;;;;;15.40;5.88;;;;;;;;;;5082216;28;20102;-67
2021/03/31 11:42:49;;;;;;;18.50;6.60;;;;;;;;;;5081023;28;20470;-67
2021/03/31 11:45:15;;;;;;;24.70;6.68;;;;;;;;;;5085145;28;20040;-67
2021/03/31 11:47:40;;;;;;;22.35;6.70;;;;;;;;;;5079979;28;20031;-67
2021/03/31 11:50:06;;;;;;;22.60;7.47;;;;;;;;;;5084704;28;20050;-67
2021/03/31 11:52:31;;;;;;;24.50;6.78;;;;;;;;;;5084854;28;20065;-67
2021/03/31 11:54:56;;;;;;;24.75;7.13;;;;;;;;;;5084049;28;20020;-67
2021/03/31 11:57:21;;;;;;;22.48;6.40;;;;;;;;;;5084236;28;20066;-67
2021/03/31 11:59:47;;;;;;;23.58;5.95;;;;;;;;;;5083619;28;20031;-67
2021/03/31 12:02:12;;;;;;;25.25;6.90;;;;;;;;;;5083992;28;20368;-67
2021/03/31 12:04:38;;;;;;;18.70;6.28;;;;;;;;;;5085491;28;20020;-66
2021/03/31 12:07:05;;;;;;;28.27;6.32;;;;;;;;;;5084403;28;20867;-67
2021/03/31 12:09:30;;;;;;;24.60;6.93;;;;;;;;;;5083836;28;20097;-67
2021/03/31 12:11:56;;;;;;;18.38;6.15;;;;;;;;;;5083591;28;20565;-67
2021/03/31 12:14:21;;;;;;;26.42;6.65;;;;;;;;;;5084867;28;20036;-66
2021/03/31 12:16:46;;;;;;;27.45;7.55;;;;;;;;;;5085027;28;20376;-67
2021/03/31 12:19:12;;;;;;;27.42;6.38;;;;;;;;;;5083883;28;20020;-67
2021/03/31 12:21:37;;;;;;;17.75;6.13;;;;;;;;;;5084943;28;20480;-67
2021/03/31 12:24:03;;;;;;;28.10;6.25;;;;;;;;;;5084539;28;20103;-67
2021/03/31 12:26:30;;;;;;;22.25;5.65;;;;;;;;;;5084674;28;20039;-67
2021/03/31 12:28:58;;;;;;;22.27;5.32;;;;;;;;;;5084287;28;20047;-67
2021/03/31 12:31:23;;;;;;;23.13;6.38;;;;;;;;;;5083906;28;20456;-67
2021/03/31 12:33:49;;;;;;;20.75;5.22;;;;;;;;;;5084067;28;20023;-67
2021/03/31 12:36:14;;;;;;;19.67;5.28;;;;;;;;;;5083365;28;20353;-67
2021/03/31 12:38:39;;;;;;;18.27;4.53;;;;;;;;;;5084065;28;20063;-67
2021/03/31 12:41:05;;;;;;;27.33;4.78;;;;;;;;;;5084755;28;20953;-67
2021/03/31 12:43:30;;;;;;;19.73;4.32;;;;;;;;;;5084656;28;20039;-67
2021/03/31 12:45:56;;;;;;;23.95;5.35;;;;;;;;;;5080440;28;20048;-67
2021/03/31 12:48:21;;;;;;;22.08;5.05;;;;;;;;;;5087249;28;20028;-67
2021/03/31 12:50:49;;;;;;;22.95;4.95;;;;;;;;;;5045740;28;20219;-67
2021/03/31 12:55:42;;;;;;;27.00;5.60;;;;;;;;;;5063620;28;20028;-67
2021/03/31 12:58:17;;;;;;;25.40;5.68;;;;;;;;;;5062790;28;20369;-67
2021/03/31 13:00:43;;;;;;;25.13;5.78;;;;;;;;;;5069875;28;20070;-67
2021/03/31 13:03:09;;;;;;;29.17;7.13;;;;;;;;;;5079815;28;20379;-67
2021/03/31 13:05:36;;;;;;;28.92;6.53;;;;;;;;;;5062646;28;20028;-67
2021/03/31 13:08:02;;;;;;;26.65;6.57;;;;;;;;;;5063501;28;20028;-67
2021/03/31 13:10:27;;;;;;;21.80;6.68;;;;;;;;;;5063032;28;20040;-67
2021/03/31 13:13:54;;;;;;;24.65;7.05;;;;;;;;;;5067526;28;20033;-67
2021/03/31 13:25:47;;;;;;;22.88;7.72;;;;;;;;;;5066406;28;20427;-67
2021/03/31 13:31:07;;;;;;;20.10;7.70;;;;;;;;;;5046412;28;20527;-67
2021/03/31 13:33:36;;;;;;;23.83;8.23;;;;;;;;;;5067345;28;20036;-67
2021/03/31 13:36:12;;;;;;;30.30;9.27;;;;;;;;;;5066665;28;20060;-67
2021/03/31 13:41:09;;;;;;;29.90;8.85;;;;;;;;;;5066000;28;20025;-67
2021/03/31 13:43:34;;;;;;;23.02;8.73;;;;;;;;;;5066487;28;20117;-67
2021/03/31 13:45:59;;;;;;;26.00;9.57;;;;;;;;;;5067563;28;20024;-67
2021/03/31 13:51:07;;;;;;;36.03;10.45;;;;;;;;;;5065562;28;20044;-66
2021/03/31 13:53:34;;;;;;;34.50;9.60;;;;;;;;;;5066725;28;20111;-67
2021/03/31 13:56:02;;;;;;;28.95;8.93;;;;;;;;;;5047327;28;20122;-67
2021/03/31 13:58:27;;;;;;;24.45;8.60;;;;;;;;;;5066276;28;20751;-66
2021/03/31 14:00:53;;;;;;;22.75;9.27;;;;;;;;;;5066355;28;20031;-66
2021/03/31 14:03:18;;;;;;;29.17;9.40;;;;;;;;;;5066243;28;20032;-66
2021/03/31 14:05:43;;;;;;;26.70;9.63;;;;;;;;;;5066503;28;20883;-66
2021/03/31 14:08:09;;;;;;;27.63;8.80;;;;;;;;;;5065722;28;20032;-66
2021/03/31 14:10:35;;;;;;;32.97;8.75;;;;;;;;;;5065909;28;20037;-67
2021/03/31 14:13:01;;;;;;;31.05;9.40;;;;;;;;;;5066255;28;20771;-67
2021/03/31 14:15:26;;;;;;;24.42;8.23;;;;;;;;;;5066340;28;20108;-67
2021/03/31 14:17:52;;;;;;;33.15;8.48;;;;;;;;;;5065108;28;20032;-67
2021/03/31 14:20:18;;;;;;;27.35;7.90;;;;;;;;;;5066282;28;20107;-67
2021/03/31 14:22:44;;;;;;;30.23;9.25;;;;;;;;;;5064776;28;20442;-66
2021/03/31 14:25:10;;;;;;;32.72;9.07;;;;;;;;;;5066259;28;20032;-67
2021/03/31 14:27:36;;;;;;;28.02;8.40;;;;;;;;;;5065072;28;20021;-67
2021/03/31 14:30:03;;;;;;;30.42;8.52;;;;;;;;;;5065644;28;20032;-67
2021/03/31 14:32:28;;;;;;;35.90;8.65;;;;;;;;;;5065471;28;20040;-67
2021/03/31 14:34:54;;;;;;;28.60;7.78;;;;;;;;;;5066368;28;20013;-67
2021/03/31 14:37:19;;;;;;;24.30;8.93;;;;;;;;;;5065957;28;20456;-67
2021/03/31 14:39:45;;;;;;;23.08;7.78;;;;;;;;;;5066864;28;20051;-67
2021/03/31 14:42:11;;;;;;;22.80;7.88;;;;;;;;;;5063812;28;20322;-67
2021/03/31 14:44:37;;;;;;;24.73;8.45;;;;;;;;;;5065814;28;20441;-67
2021/03/31 14:47:02;;;;;;;27.73;9.48;;;;;;;;;;5064904;28;20037;-67
2021/03/31 14:49:29;;;;;;;28.58;8.80;;;;;;;;;;5065642;28;20464;-67
2021/03/31 14:59:53;;;;;;;23.35;7.65;;;;;;;;;;5065482;28;20076;-66
2021/03/31 15:02:18;;;;;;;18.95;7.55;;;;;;;;;;5064203;28;20149;-67
2021/03/31 15:04:44;;;;;;;32.60;8.73;;;;;;;;;;5064509;28;20020;-66
2021/03/31 15:07:10;;;;;;;22.85;7.35;;;;;;;;;;5064990;28;20150;-67
2021/03/31 15:09:35;;;;;;;26.80;7.35;;;;;;;;;;5065751;28;20040;-66
2021/03/31 15:12:01;;;;;;;29.65;7.40;;;;;;;;;;5064779;28;20726;-67
2021/03/31 15:14:27;;;;;;;29.55;7.15;;;;;;;;;;5064052;28;20039;-67
2021/03/31 15:16:52;;;;;;;30.17;7.25;;;;;;;;;;5046542;28;20028;-67
2021/03/31 15:24:45;;;;;;;25.67;7.40;;;;;;;;;;5064621;28;20112;-67
2021/03/31 15:27:11;;;;;;;25.48;6.78;;;;;;;;;;5064202;28;20454;-66